createdAt,value
2022-11-05T00:00:37.683Z,12.90
2022-11-05T00:03:33.775Z,9.15
2022-11-05T00:06:19.139Z,8.52
2022-11-05T00:09:04.383Z,10.38
2022-11-05T00:11:50.204Z,12.35
2022-11-05T00:14:35.579Z,8.52
2022-11-05T00:17:02.548Z,9.55
2022-11-05T00:19:29.561Z,9.98
2022-11-05T00:22:15.339Z,9.40
2022-11-05T00:25:00.780Z,9.23
2022-11-05T00:27:27.755Z,10.07
2022-11-05T00:29:54.859Z,16.45
2022-11-05T00:32:23.203Z,13.95
2022-11-05T00:34:50.214Z,9.30
2022-11-05T00:37:17.206Z,13.02
2022-11-05T00:39:44.274Z,10.23
2022-11-05T00:42:29.718Z,14.40
2022-11-05T00:45:02.858Z,10.35
2022-11-05T00:47:50.674Z,10.85
2022-11-05T00:50:19.321Z,11.60
2022-11-05T00:52:59.720Z,9.73
2022-11-05T00:55:28.686Z,12.90
2022-11-05T00:57:57.186Z,13.63
2022-11-05T01:00:27.594Z,8.68
2022-11-05T01:02:58.657Z,12.82
2022-11-05T01:05:26.128Z,9.85
2022-11-05T01:07:53.924Z,9.40
2022-11-05T01:10:21.741Z,7.85
2022-11-05T01:12:49.161Z,11.45
2022-11-05T01:15:17.792Z,7.15
2022-11-05T01:17:44.772Z,4.82
2022-11-05T01:20:12.729Z,6.95
2022-11-05T01:22:39.760Z,8.20
2022-11-05T01:25:08.326Z,5.85
2022-11-05T01:27:37.497Z,7.68
2022-11-05T01:30:07.750Z,6.05
2022-11-05T01:32:36.491Z,6.47
2022-11-05T01:35:06.029Z,5.93
2022-11-05T01:37:35.006Z,4.55
2022-11-05T01:40:02.377Z,9.45
2022-11-05T01:42:33.048Z,7.32
2022-11-05T01:45:03.336Z,7.05
2022-11-05T01:47:52.559Z,5.50
2022-11-05T01:50:37.512Z,8.77
2022-11-05T01:53:27.567Z,7.22
2022-11-05T01:56:05.361Z,5.80
2022-11-05T01:58:42.766Z,9.32
2022-11-05T02:01:09.991Z,5.65
2022-11-05T02:03:37.263Z,7.25
2022-11-05T02:06:09.301Z,12.10
2022-11-05T02:09:02.186Z,12.30
2022-11-05T02:11:29.709Z,5.75
2022-11-05T02:13:56.698Z,8.35
2022-11-05T02:16:47.221Z,7.50
2022-11-05T02:19:55.028Z,10.52
2022-11-05T02:22:48.904Z,9.85
2022-11-05T02:25:39.751Z,9.85
2022-11-05T02:28:18.521Z,6.47
2022-11-05T02:31:24.867Z,8.32
2022-11-05T02:34:28.634Z,8.55
2022-11-05T02:37:23.114Z,5.55
2022-11-05T02:40:16.863Z,7.90
2022-11-05T02:43:28.616Z,6.93
2022-11-05T02:46:20.961Z,9.50
2022-11-05T02:49:13.841Z,7.53
2022-11-05T02:51:58.400Z,5.90
2022-11-05T02:54:31.905Z,8.13
2022-11-05T02:57:00.886Z,6.97
2022-11-05T02:59:27.965Z,6.45
2022-11-05T03:01:55.754Z,7.43
2022-11-05T03:04:24.869Z,6.28
2022-11-05T03:07:24.007Z,6.28
2022-11-05T03:10:18.243Z,8.85
2022-11-05T03:13:16.625Z,6.80
2022-11-05T03:15:57.472Z,10.20
2022-11-05T03:18:51.362Z,9.70
2022-11-05T03:21:45.794Z,10.32
2022-11-05T03:24:31.595Z,10.32
2022-11-05T03:27:19.674Z,13.00
2022-11-05T03:29:54.154Z,8.48
2022-11-05T03:32:22.535Z,9.77
2022-11-05T03:35:08.326Z,8.30
2022-11-05T03:37:37.746Z,7.38
2022-11-05T03:40:08.488Z,10.02
2022-11-05T03:42:41.215Z,8.90
2022-11-05T03:45:16.014Z,12.15
2022-11-05T03:47:46.249Z,7.82
2022-11-05T03:50:35.860Z,10.48
2022-11-05T03:53:20.945Z,9.13
2022-11-05T03:56:35.849Z,10.75
2022-11-05T03:59:03.967Z,9.75
2022-11-05T04:01:31.769Z,10.50
2022-11-05T04:03:58.864Z,10.98
2022-11-05T04:06:44.828Z,12.43
2022-11-05T04:09:30.313Z,11.18
2022-11-05T04:12:16.192Z,13.02
2022-11-05T04:14:43.164Z,18.77
2022-11-05T04:17:10.272Z,16.63
2022-11-05T04:20:01.633Z,13.93
2022-11-05T04:22:50.603Z,15.10
2022-11-05T04:25:18.708Z,13.43
2022-11-05T04:27:46.504Z,13.55
2022-11-05T04:30:18.584Z,18.48
2022-11-05T04:35:48.274Z,11.80
2022-11-05T04:38:18.391Z,12.80
2022-11-05T04:40:47.035Z,11.57
2022-11-05T04:43:19.363Z,11.98
2022-11-05T04:45:47.534Z,9.50
2022-11-05T04:48:14.508Z,15.60
2022-11-05T04:50:41.523Z,16.35
2022-11-05T04:53:08.790Z,13.10
2022-11-05T04:55:35.903Z,15.73
2022-11-05T04:58:09.302Z,16.35
2022-11-05T05:00:36.821Z,15.23
2022-11-05T05:03:03.829Z,17.70
2022-11-05T05:05:35.750Z,18.73
2022-11-05T05:08:06.000Z,16.60
2022-11-05T05:10:33.109Z,21.63
2022-11-05T05:13:00.122Z,16.50
2022-11-05T05:15:27.193Z,18.08
2022-11-05T05:17:54.259Z,14.70
2022-11-05T05:20:39.538Z,16.85
2022-11-05T05:23:06.592Z,16.35
2022-11-05T05:25:33.547Z,20.20
2022-11-05T05:28:00.631Z,15.27
2022-11-05T05:30:27.670Z,17.02
2022-11-05T05:32:54.710Z,17.60
2022-11-05T05:35:21.857Z,21.95
2022-11-05T05:37:48.799Z,16.55
2022-11-05T05:40:15.773Z,22.75
2022-11-05T05:42:43.551Z,15.18
2022-11-05T05:45:12.366Z,15.73
2022-11-05T05:47:39.343Z,19.92
2022-11-05T05:50:06.633Z,17.40
2022-11-05T05:52:33.574Z,16.08
2022-11-05T05:55:00.730Z,17.48
2022-11-05T05:57:27.733Z,17.92
2022-11-05T05:59:54.695Z,19.08
2022-11-05T06:02:22.955Z,21.25
2022-11-05T06:04:50.164Z,19.58
2022-11-05T06:07:17.173Z,20.13
2022-11-05T06:09:44.141Z,18.75
2022-11-05T06:12:11.114Z,19.50
2022-11-05T06:14:38.086Z,14.68
2022-11-05T06:17:07.463Z,21.20
2022-11-05T06:19:34.416Z,18.83
2022-11-05T06:22:01.391Z,23.55
2022-11-05T06:24:28.366Z,20.95
2022-11-05T06:26:55.366Z,21.98
2022-11-05T06:29:22.466Z,22.15
2022-11-05T06:31:49.454Z,20.63
2022-11-05T06:34:16.408Z,19.02
2022-11-05T06:36:43.360Z,23.23
2022-11-05T06:39:11.853Z,21.50
2022-11-05T06:42:04.027Z,21.75
2022-11-05T06:44:26.160Z,24.75
2022-11-05T06:46:53.134Z,18.30
2022-11-05T06:49:22.408Z,21.33
2022-11-05T06:51:49.375Z,22.38
2022-11-05T06:54:16.349Z,18.65
2022-11-05T06:56:43.341Z,21.75
2022-11-05T06:59:10.346Z,20.95
2022-11-05T07:01:38.155Z,31.67
2022-11-05T07:04:05.236Z,24.83
2022-11-05T07:06:36.832Z,34.58
2022-11-05T07:09:04.513Z,22.13
2022-11-05T07:11:31.626Z,24.15
2022-11-05T07:13:58.637Z,18.77
2022-11-05T07:16:25.613Z,20.08
2022-11-05T07:18:53.088Z,17.83
2022-11-05T07:21:20.514Z,21.05
2022-11-05T07:23:48.518Z,23.77
2022-11-05T07:26:15.803Z,19.25
2022-11-05T07:28:42.747Z,19.25
2022-11-05T07:31:09.696Z,23.35
2022-11-05T07:33:36.972Z,23.42
2022-11-05T07:36:04.555Z,21.52
2022-11-05T07:38:31.606Z,21.05
2022-11-05T07:41:02.198Z,27.23
2022-11-05T07:43:29.221Z,21.00
2022-11-05T07:45:56.257Z,21.55
2022-11-05T07:48:23.812Z,20.45
2022-11-05T07:50:53.053Z,22.20
2022-11-05T07:53:23.136Z,20.67
2022-11-05T07:55:52.467Z,18.00
2022-11-05T07:58:19.411Z,19.70
2022-11-05T08:00:46.633Z,25.45
2022-11-05T08:03:17.487Z,21.08
2022-11-05T08:05:48.105Z,20.55
2022-11-05T08:08:18.386Z,19.77
2022-11-05T08:10:45.815Z,21.27
2022-11-05T08:13:13.760Z,22.67
2022-11-05T08:15:42.682Z,22.55
2022-11-05T08:18:16.393Z,19.08
2022-11-05T08:20:45.237Z,23.65
2022-11-05T08:23:13.071Z,23.42
2022-11-05T08:25:41.167Z,22.80
2022-11-05T08:28:13.997Z,15.52
2022-11-05T08:30:41.109Z,23.25
2022-11-05T08:33:12.289Z,21.98
2022-11-05T08:35:40.181Z,23.92
2022-11-05T08:38:09.894Z,20.13
2022-11-05T08:40:38.008Z,16.42
2022-11-05T08:43:07.204Z,20.63
2022-11-05T08:45:38.182Z,18.83
2022-11-05T08:48:12.589Z,17.45
2022-11-05T08:50:43.900Z,20.25
2022-11-05T08:53:12.020Z,23.40
2022-11-05T08:55:39.876Z,19.67
2022-11-05T08:58:12.519Z,18.38
2022-11-05T09:00:40.197Z,20.63
2022-11-05T09:03:09.878Z,24.17
2022-11-05T09:05:39.518Z,23.23
2022-11-05T09:08:18.332Z,22.02
2022-11-05T09:10:47.149Z,20.95
2022-11-05T09:13:18.696Z,21.95
2022-11-05T09:15:48.945Z,22.58
2022-11-05T09:18:18.074Z,18.77
2022-11-05T09:20:45.271Z,19.35
2022-11-05T09:23:14.875Z,19.35
2022-11-05T09:25:42.306Z,20.75
2022-11-05T09:28:20.281Z,15.85
2022-11-05T09:30:50.522Z,21.40
2022-11-05T09:33:21.649Z,20.85
2022-11-05T09:35:48.955Z,20.40
2022-11-05T09:38:16.564Z,17.02
2022-11-05T09:41:08.777Z,17.75
2022-11-05T09:43:48.435Z,22.73
2022-11-05T09:46:28.398Z,14.55
2022-11-05T09:49:05.094Z,19.58
2022-11-05T09:51:32.917Z,20.50
2022-11-05T09:54:03.821Z,18.17
2022-11-05T09:56:34.921Z,17.27
2022-11-05T09:59:23.163Z,18.58
2022-11-05T10:01:52.363Z,12.32
2022-11-05T10:04:24.563Z,18.90
2022-11-05T10:07:00.833Z,16.52
2022-11-05T10:10:02.375Z,14.25
2022-11-05T10:12:40.485Z,11.45
2022-11-05T10:15:28.365Z,12.48
2022-11-05T10:18:10.510Z,14.32
2022-11-05T10:20:39.254Z,18.05
2022-11-05T10:23:14.950Z,18.25
2022-11-05T10:25:47.373Z,27.98
2022-11-05T10:28:24.413Z,25.80
2022-11-05T10:30:58.155Z,19.35
2022-11-05T10:33:39.360Z,20.27
2022-11-05T10:36:11.652Z,12.55
2022-11-05T10:41:28.912Z,10.27
2022-11-05T10:44:24.205Z,9.80
2022-11-05T10:47:10.761Z,11.60
2022-11-05T10:49:46.396Z,10.38
2022-11-05T10:52:24.031Z,17.90
2022-11-05T10:54:53.973Z,11.50
2022-11-05T10:57:41.593Z,9.40
2022-11-05T11:00:23.472Z,13.05
2022-11-05T11:03:02.772Z,10.95
2022-11-05T11:05:39.735Z,9.85
2022-11-05T11:08:12.371Z,15.80
2022-11-05T11:10:55.934Z,12.65
2022-11-05T11:13:30.050Z,10.18
2022-11-05T11:16:20.375Z,10.27
2022-11-05T11:18:56.416Z,11.23
2022-11-05T11:21:24.166Z,13.90
2022-11-05T11:24:02.908Z,19.98
2022-11-05T11:26:37.839Z,30.35
2022-11-05T11:29:26.039Z,35.80
2022-11-05T11:32:00.106Z,48.58
2022-11-05T11:34:33.759Z,22.25
2022-11-05T11:37:28.981Z,14.52
2022-11-05T11:40:12.006Z,15.70
2022-11-05T11:42:45.412Z,14.07
2022-11-05T11:45:37.545Z,15.35
2022-11-05T11:48:19.100Z,17.70
2022-11-05T11:50:48.543Z,16.80
2022-11-05T11:53:29.170Z,16.23
2022-11-05T11:56:04.945Z,11.57
2022-11-05T11:58:50.621Z,16.33
2022-11-05T12:02:02.208Z,14.68
2022-11-05T12:05:07.068Z,16.27
2022-11-05T12:07:55.343Z,12.95
2022-11-05T12:10:48.871Z,15.88
2022-11-05T12:13:22.116Z,13.07
2022-11-05T12:16:01.907Z,15.85
2022-11-05T12:19:17.224Z,14.70
2022-11-05T12:22:10.117Z,14.45
2022-11-05T12:24:51.538Z,9.70
2022-11-05T12:27:52.187Z,15.95
2022-11-05T12:30:21.758Z,16.15
2022-11-05T12:33:25.257Z,14.02
2022-11-05T12:36:05.027Z,16.38
2022-11-05T12:38:40.805Z,16.65
2022-11-05T12:41:47.197Z,12.32
2022-11-05T12:44:50.450Z,17.92
2022-11-05T12:47:53.454Z,14.25
2022-11-05T12:51:10.637Z,18.52
2022-11-05T12:54:11.365Z,17.38
2022-11-05T12:56:56.749Z,14.57
2022-11-05T12:59:37.576Z,14.10
2022-11-05T13:02:26.174Z,14.35
2022-11-05T13:05:07.157Z,12.30
2022-11-05T13:07:39.309Z,13.88
2022-11-05T13:12:46.650Z,13.60
2022-11-05T13:15:41.459Z,11.75
2022-11-05T13:18:18.321Z,15.35
2022-11-05T13:20:50.398Z,16.85
2022-11-05T13:25:58.860Z,18.08
2022-11-05T13:28:56.727Z,15.10
2022-11-05T13:31:43.885Z,21.23
2022-11-05T13:34:20.181Z,18.90
2022-11-05T13:37:20.585Z,14.93
2022-11-05T13:39:59.364Z,16.50
2022-11-05T13:42:41.790Z,17.42
2022-11-05T13:45:35.057Z,14.48
2022-11-05T13:48:49.043Z,14.45
2022-11-05T13:51:52.824Z,14.82
2022-11-05T13:54:49.741Z,14.48
2022-11-05T13:57:49.868Z,18.27
2022-11-05T14:00:21.191Z,15.05
2022-11-05T14:03:03.085Z,18.25
2022-11-05T14:05:38.288Z,14.18
2022-11-05T14:08:11.865Z,17.60
2022-11-05T14:10:45.904Z,14.45
2022-11-05T14:13:42.311Z,15.10
2022-11-05T14:16:47.898Z,16.17
2022-11-05T14:19:27.485Z,15.73
2022-11-05T14:21:56.803Z,16.90
2022-11-05T14:24:23.980Z,20.92
2022-11-05T14:27:03.370Z,17.40
2022-11-05T14:29:47.832Z,18.85
2022-11-05T14:32:18.044Z,22.55
2022-11-05T14:34:56.208Z,19.33
2022-11-05T14:37:25.470Z,14.73
2022-11-05T14:39:55.069Z,17.17
2022-11-05T14:42:30.627Z,30.90
2022-11-05T14:45:23.287Z,36.85
2022-11-05T14:48:05.505Z,28.40
2022-11-05T14:50:51.147Z,25.27
2022-11-05T14:53:36.796Z,24.83
2022-11-05T14:56:12.399Z,16.65
2022-11-05T14:58:44.299Z,16.33
2022-11-05T15:01:14.266Z,20.45
2022-11-05T15:03:46.030Z,16.65
2022-11-05T15:06:29.696Z,19.38
2022-11-05T15:09:17.215Z,24.13
2022-11-05T15:11:56.573Z,19.38
2022-11-05T15:14:51.665Z,14.32
2022-11-05T15:17:39.328Z,10.98
2022-11-05T15:20:21.625Z,12.55
2022-11-05T15:25:30.579Z,12.38
2022-11-05T15:28:16.513Z,12.63
2022-11-05T15:31:04.909Z,13.43
2022-11-05T15:33:33.061Z,16.35
2022-11-05T15:36:27.973Z,13.00
2022-11-05T15:39:27.444Z,15.25
2022-11-05T15:41:43.499Z,11.07
2022-11-05T15:44:31.757Z,11.38
2022-11-05T15:47:36.795Z,9.77
2022-11-05T15:50:15.589Z,10.70
2022-11-05T15:52:51.666Z,15.82
2022-11-05T15:55:24.780Z,11.95
2022-11-05T15:58:01.329Z,10.80
2022-11-05T16:00:33.437Z,14.73
2022-11-05T16:03:07.843Z,16.67
2022-11-05T16:05:42.299Z,15.90
2022-11-05T16:08:19.916Z,14.07
2022-11-05T16:10:50.247Z,13.43
2022-11-05T16:13:34.518Z,21.27
2022-11-05T16:16:14.285Z,17.02
2022-11-05T16:18:42.924Z,9.52
2022-11-05T16:21:19.287Z,11.82
2022-11-05T16:23:49.262Z,10.93
2022-11-05T16:27:00.512Z,10.07
2022-11-05T16:29:22.187Z,13.70
2022-11-05T16:31:50.957Z,13.77
2022-11-05T16:34:35.813Z,14.95
2022-11-05T16:37:08.209Z,14.85
2022-11-05T16:39:35.210Z,13.18
2022-11-05T16:42:02.271Z,14.10
2022-11-05T16:44:29.478Z,12.68
2022-11-05T16:46:56.494Z,14.75
2022-11-05T16:49:23.579Z,10.13
2022-11-05T16:51:50.539Z,11.18
2022-11-05T16:54:17.781Z,21.33
2022-11-05T16:56:47.362Z,11.45
2022-11-05T16:59:14.356Z,12.00
2022-11-05T17:01:43.045Z,13.73
2022-11-05T17:04:13.075Z,11.30
2022-11-05T17:06:40.235Z,12.90
2022-11-05T17:09:07.261Z,17.05
2022-11-05T17:11:34.324Z,11.70
2022-11-05T17:14:01.339Z,14.93
2022-11-05T17:16:28.387Z,11.98
2022-11-05T17:18:55.420Z,12.90
2022-11-05T17:21:22.432Z,7.78
2022-11-05T17:23:49.510Z,12.68
2022-11-05T17:26:16.470Z,15.63
2022-11-05T17:28:43.593Z,10.00
2022-11-05T17:31:17.289Z,13.85
2022-11-05T17:33:44.466Z,10.30
2022-11-05T17:36:14.897Z,16.63
2022-11-05T17:38:42.173Z,11.95
2022-11-05T17:41:19.122Z,12.00
2022-11-05T17:43:47.387Z,9.85
2022-11-05T17:46:19.257Z,9.13
2022-11-05T17:48:46.656Z,12.02
2022-11-05T17:51:16.829Z,12.48
2022-11-05T17:53:44.862Z,10.93
2022-11-05T17:56:17.030Z,12.02
2022-11-05T17:58:49.415Z,21.58
2022-11-05T18:01:33.281Z,17.17
2022-11-05T18:04:07.134Z,21.15
2022-11-05T18:06:37.168Z,15.13
2022-11-05T18:09:06.696Z,22.58
2022-11-05T18:11:35.726Z,27.33
2022-11-05T18:14:03.884Z,13.48
2022-11-05T18:16:31.055Z,17.40
2022-11-05T18:18:58.094Z,13.48
2022-11-05T18:21:25.137Z,12.07
2022-11-05T18:23:52.307Z,15.63
2022-11-05T18:26:19.824Z,13.07
2022-11-05T18:28:47.168Z,16.23
2022-11-05T18:31:18.640Z,12.93
2022-11-05T18:33:46.167Z,9.45
2022-11-05T18:36:22.893Z,17.50
2022-11-05T18:38:50.479Z,10.10
2022-11-05T18:41:18.827Z,19.42
2022-11-05T18:43:46.219Z,10.02
2022-11-05T18:46:35.807Z,11.43
2022-11-05T18:49:01.584Z,20.55
2022-11-05T18:51:28.813Z,11.90
2022-11-05T18:53:56.307Z,13.18
2022-11-05T18:56:23.631Z,15.70
2022-11-05T18:59:14.757Z,28.80
2022-11-05T19:01:40.474Z,9.38
2022-11-05T19:04:07.973Z,10.63
2022-11-05T19:06:35.706Z,12.48
2022-11-05T19:09:03.175Z,11.38
2022-11-05T19:11:30.305Z,9.60
2022-11-05T19:13:57.703Z,8.75
2022-11-05T19:16:27.931Z,7.38
2022-11-05T19:18:58.567Z,10.27
2022-11-05T19:21:27.093Z,6.65
2022-11-05T19:23:56.712Z,11.15
2022-11-05T19:26:28.556Z,7.97
2022-11-05T19:28:59.467Z,8.85
2022-11-05T19:31:26.858Z,6.82
2022-11-05T19:33:55.095Z,8.40
2022-11-05T19:36:24.057Z,6.85
2022-11-05T19:39:03.485Z,10.65
2022-11-05T19:41:30.979Z,13.02
2022-11-05T19:43:59.156Z,8.05
2022-11-05T19:46:26.319Z,16.20
2022-11-05T19:48:53.973Z,18.60
2022-11-05T19:51:27.610Z,11.40
2022-11-05T19:53:55.966Z,9.82
2022-11-05T19:56:27.526Z,12.05
2022-11-05T19:58:54.748Z,13.52
2022-11-05T20:01:24.092Z,17.40
2022-11-05T20:03:51.994Z,17.98
2022-11-05T20:06:28.568Z,12.60
2022-11-05T20:11:45.466Z,7.15
2022-11-05T20:14:12.585Z,9.43
2022-11-05T20:16:40.363Z,6.55
2022-11-05T20:19:10.844Z,7.63
2022-11-05T20:21:38.418Z,9.90
2022-11-05T20:24:06.184Z,12.25
2022-11-05T20:26:33.792Z,10.35
2022-11-05T20:29:00.854Z,13.50
2022-11-05T20:31:27.914Z,10.13
2022-11-05T20:33:54.917Z,7.88
2022-11-05T20:36:24.303Z,6.68
2022-11-05T20:38:57.954Z,10.80
2022-11-05T20:41:26.283Z,7.38
2022-11-05T20:43:54.155Z,9.80
2022-11-05T20:46:22.617Z,9.80
2022-11-05T20:48:49.824Z,8.95
2022-11-05T20:51:20.463Z,12.63
2022-11-05T20:53:48.202Z,13.80
2022-11-05T20:56:25.827Z,16.60
2022-11-05T20:58:54.092Z,30.02
2022-11-05T21:01:21.277Z,22.13
2022-11-05T21:03:48.789Z,19.83
2022-11-05T21:06:16.554Z,13.95
2022-11-05T21:08:46.264Z,16.70
2022-11-05T21:11:13.504Z,15.32
2022-11-05T21:13:40.987Z,14.13
2022-11-05T21:16:14.031Z,22.45
2022-11-05T21:18:44.305Z,19.27
2022-11-05T21:21:19.295Z,14.25
2022-11-05T21:23:46.897Z,16.55
2022-11-05T21:26:15.199Z,10.32
2022-11-05T21:28:42.799Z,9.93
2022-11-05T21:31:10.339Z,15.52
2022-11-05T21:33:37.542Z,16.17
2022-11-05T21:36:11.062Z,17.02
2022-11-05T21:38:39.232Z,25.75
2022-11-05T21:41:07.451Z,28.50
2022-11-05T21:43:35.454Z,31.75
2022-11-05T21:46:04.150Z,23.50
2022-11-05T21:48:31.596Z,20.55
2022-11-05T21:51:17.604Z,21.75
2022-11-05T21:54:03.449Z,23.17
2022-11-05T21:56:49.483Z,22.95
2022-11-05T21:59:39.376Z,30.45
2022-11-05T22:02:08.011Z,17.95
2022-11-05T22:04:38.647Z,24.20
2022-11-05T22:07:07.784Z,20.70
2022-11-05T22:09:35.220Z,22.88
2022-11-05T22:12:02.741Z,22.15
2022-11-05T22:14:30.051Z,19.02
2022-11-05T22:16:57.874Z,19.52
2022-11-05T22:19:25.747Z,20.30
2022-11-05T22:21:52.993Z,16.48
2022-11-05T22:24:20.515Z,16.45
2022-11-05T22:26:48.246Z,17.83
2022-11-05T22:29:15.609Z,15.40
2022-11-05T22:31:43.190Z,14.73
2022-11-05T22:34:11.063Z,15.55
2022-11-05T22:36:38.551Z,13.35
2022-11-05T22:39:06.386Z,18.05
2022-11-05T22:41:34.087Z,13.65
2022-11-05T22:44:01.192Z,15.60
2022-11-05T22:46:28.242Z,13.68
2022-11-05T22:48:56.268Z,13.50
2022-11-05T22:51:29.471Z,15.25
2022-11-05T22:53:57.626Z,14.82
2022-11-05T22:56:29.211Z,14.82
2022-11-05T22:58:57.116Z,12.48
2022-11-05T23:01:25.296Z,15.27
2022-11-05T23:03:54.903Z,19.17
2022-11-05T23:06:43.914Z,16.33
2022-11-05T23:09:40.154Z,16.10
2022-11-05T23:12:30.072Z,13.90
2022-11-05T23:15:00.091Z,15.18
2022-11-05T23:17:46.438Z,15.98
2022-11-05T23:20:41.882Z,18.80
2022-11-05T23:23:31.472Z,17.50
2022-11-05T23:26:00.075Z,16.13
2022-11-05T23:28:27.343Z,17.80
2022-11-05T23:31:13.051Z,18.38
2022-11-05T23:33:40.046Z,17.25
2022-11-05T23:36:25.944Z,17.35
2022-11-05T23:38:52.886Z,14.82
2022-11-05T23:41:51.940Z,22.98
2022-11-05T23:44:37.629Z,14.00
2022-11-05T23:47:23.026Z,14.40
2022-11-05T23:49:50.007Z,14.38
2022-11-05T23:52:16.968Z,12.23
2022-11-05T23:54:43.968Z,11.93
2022-11-05T23:57:10.942Z,13.75
2022-11-05T23:59:37.944Z,11.60
